Historique des mesures à Cassis (13260), France
Quotidien Résumé Avril 25, 2017 Unités:  US    Métrique   Métrique/US
« Précédent (Jour)
Suivant (Jour) »
Quotidien Hebdomadaire Mensuel Annuel Période au choix
  Maximum: Minimum: Moyenne:
Température: 32 °F 55 °F 60.6 °F
Point de rosée: 32 °F 47.1 °F 50 °F
Humidité: Humidity % 57 % 65 %
Vitesse du vent: WindSpeedKMH mph 0.0 mph 2.3 mph
Rafales: WindSpeedGustKMH mph - -
Vent:- - SSE
Pression: 0 in 29.7 in -
Précipitations: 0 in    
Historical Graphs
 
 
Mesures pour : Avril 25, 2017
Heure Temperature Point de rosée Pression Vent Vitesse du vent Rafales Humidité Pluie (par heure) Conditions
32 °F 32 °F 0 in Calm     Humidity % 0 in SoftwareType W/m2
00:10 57.2 °F 48.2 °F 29.9 in Calm     72 % 0 in open2300-1.11 W/m2
01:10 55.4 °F 47.1 °F 29.9 in Calm     74 % 0 in open2300-1.11 W/m2
02:10 55.9 °F 48 °F 29.9 in Calm   1.4 mph 75 % 0 in open2300-1.11 W/m2
03:11 56.8 °F 48.9 °F 29.9 in WSW 4.7 mph 4.7 mph 75 % 0 in open2300-1.11 W/m2
04:10 55 °F 47.1 °F 29.9 in Calm     75 % 0 in open2300-1.11 W/m2
05:10 55.8 °F 48.2 °F 29.9 in Calm     76 % 0 in open2300-1.11 W/m2
06:11 56.8 °F 49.3 °F 29.8 in SE 2.6 mph 2.9 mph 76 % 0 in open2300-1.11 W/m2
07:11 56.8 °F 49.3 °F 29.8 in Calm   5.8 mph 76 % 0 in open2300-1.11 W/m2
08:11 60.1 °F 51.8 °F 29.9 in Calm   2.6 mph 74 % 0 in open2300-1.11 W/m2
09:10 60.4 °F 51.8 °F 29.8 in South 2.1 mph 5.5 mph 73 % 0 in open2300-1.11 W/m2
10:10 62.4 °F 52.5 °F 29.8 in SSE 5.8 mph 7.2 mph 70 % 0 in open2300-1.11 W/m2
11:10 67.8 °F 53.4 °F 29.8 in Calm   4.0 mph 60 % 0 in open2300-1.11 W/m2
12:10 70 °F 55.6 °F 29.8 in SSE 12.2 mph 12.2 mph 60 % 0 in open2300-1.11 W/m2
13:10 70.5 °F 55 °F 29.8 in SE 2.6 mph 5.8 mph 58 % 0 in open2300-1.11 W/m2
14:10 70.5 °F 54.5 °F 29.8 in SE 4.3 mph 4.7 mph 57 % 0 in open2300-1.11 W/m2
15:11 69.1 °F 53.2 °F 29.8 in ESE 2.1 mph 2.9 mph 57 % 0 in open2300-1.11 W/m2
17:10 66.7 °F 53.8 °F 29.7 in South 4.3 mph 4.3 mph 63 % 0 in open2300-1.11 W/m2
18:10 64.9 °F 51.1 °F 29.7 in ESE 3.5 mph 3.5 mph 61 % 0 in open2300-1.11 W/m2
19:10 63.7 °F 51.3 °F 29.7 in ESE 3.5 mph 3.5 mph 64 % 0 in open2300-1.11 W/m2
20:11 62.8 °F 50.7 °F 29.7 in Calm     65 % 0 in open2300-1.11 W/m2
21:11 61.5 °F 49.6 °F 29.7 in SE 5.0 mph 5.0 mph 65 % 0 in open2300-1.11 W/m2
22:10 60.6 °F 48.4 °F 29.7 in Calm   2.1 mph 64 % 0 in open2300-1.11 W/m2
23:10 60.6 °F 48.7 °F 29.7 in South 1.4 mph 1.8 mph 65 % 0 in open2300-1.11 W/m2
Observations météo à CASSIS
WU-History script by Weather Underground - 1 mb